Aviation Digital Data Service (ADDS)

Output produced by METARs form (1847 UTC 26 March 2017)
found at http://aviationweather.gov/adds/metars/
 
KCLE 261741Z 2618/2724 18012G20KT 6SM -RA BKN035 OVC070 
     FM262000 19010KT 5SM -SHRA BKN025 OVC035 
     TEMPO 2620/2623 2SM SHRA OVC015 
     FM270100 20007KT 6SM -SHRA VCTS BKN025CB OVC035 
     TEMPO 2701/2703 2SM -TSRA BKN015CB 
     FM270400 20006KT 5SM BR BKN015 
     FM270700 20005KT 4SM BR OVC008 
     FM271400 22006KT P6SM OVC015 
     FM271800 23008KT P6SM BKN025